Latest Weather Observations for Roxby Downs

IDS60801

Issued at 8:35 pm CDT Tuesday 21 October 2014 (issued every 30 minutes, with the page automatically refreshed every 10 minutes)

About weather observations | Map of weather stations | Latest weather observations for SA | Other Formats
Station Details ID: 016096 Name: OLYMPIC DAM AERODROME Lat: -30.48 Lon: 136.88 Height: 98.5 m
Data from the previous 72 hours. | See also: Recent months at Roxby Downs
Date/Time
CDT
Temp
°C
App
Temp
°C
Dew
Point
Rel
Hum
%
Delta-T
°C
Wind Press
QNH
hPa
Press
MSL
hPa
Rain
since 9 am
mm
Dir
 
Spd
km/h
Gust
km/h
Spd
kts
Gust
kts
21/08:30pm 34.1 28.8 -0.5 11 16.9 NNE 17 20 9 11 1015.7 1015.5 0.0
21/08:00pm 34.8 29.4 -1.3 10 17.5 NNE 17 20 9 11 1015.4 1015.2 0.0
21/07:30pm 35.5 29.8 -0.8 10 17.8 NNE 19 26 10 14 1015.1 1014.9 0.0
21/07:00pm 36.3 30.7 -0.2 10 18.2 NNE 19 26 10 14 1014.8 1014.6 0.0
21/06:30pm 36.7 31.5 0.1 10 18.4 NNE 17 22 9 12 1014.6 1014.4 0.0
21/06:00pm 37.2 32.2 -0.9 9 18.9 N 15 22 8 12 1014.4 1014.2 0.0
21/05:30pm 37.8 30.8 -0.5 9 19.2 NNE 26 39 14 21 1014.3 1014.1 0.0
21/05:00pm 38.1 32.3 -0.3 9 19.3 N 20 33 11 18 1014.5 1014.3 0.0
21/04:45pm 38.7 33.5 0.2 9 19.6 N 17 26 9 14 1014.6 1014.4 0.0
21/04:30pm 38.3 32.9 -1.7 8 19.7 N 17 30 9 16 1014.8 1014.6 0.0
21/04:26pm 38.0 32.5 -1.9 8 19.6 N 17 30 9 16 1014.9 1014.7 0.0
21/04:20pm 37.7 32.4 -0.6 9 19.1 N 17 28 9 15 1014.8 1014.6 0.0
21/04:00pm 38.0 32.0 -1.9 8 19.6 NNW 20 33 11 18 1015.1 1014.9 0.0
21/03:30pm 37.6 31.9 -0.6 9 19.1 N 19 35 10 19 1015.4 1015.2 0.0
21/03:00pm 38.3 31.0 -0.1 9 19.4 N 28 41 15 22 1015.8 1015.6 0.0
21/02:30pm 38.4 31.9 0.0 9 19.4 N 24 37 13 20 1016.3 1016.0 0.0
21/02:00pm 37.6 29.8 -0.6 9 19.1 N 30 43 16 23 1016.9 1016.6 0.0
21/01:30pm 37.7 30.3 -0.6 9 19.1 N 28 43 15 23 1017.4 1017.1 0.0
21/01:00pm 36.6 29.1 -1.4 9 18.6 N 28 44 15 24 1017.8 1017.5 0.0
21/12:49pm 37.1 29.7 -1.0 9 18.8 N 28 46 15 25 1017.9 1017.6 0.0
21/12:30pm 36.8 28.6 -1.2 9 18.7 N 32 46 17 25 1018.3 1018.0 0.0
21/12:06pm 36.6 28.3 -1.4 9 18.6 N 32 52 17 28 1018.6 1018.3 0.0
21/12:00pm 36.3 28.0 -1.6 9 18.4 N 32 44 17 24 1018.6 1018.3 0.0
21/11:47am 36.2 27.9 -1.7 9 18.4 N 32 44 17 24 1018.7 1018.4 0.0
21/11:37am 35.8 28.0 -0.5 10 17.9 N 30 48 16 26 1018.8 1018.5 0.0
21/11:30am 36.1 27.8 -1.7 9 18.3 N 32 44 17 24 1018.9 1018.6 0.0
21/11:00am 35.4 27.6 -0.8 10 17.8 N 30 41 16 22 1018.9 1018.6 0.0
21/10:30am 34.8 27.9 -2.7 9 17.7 NNE 24 32 13 17 1018.8 1018.5 0.0
21/10:00am 33.4 26.9 -2.3 10 16.9 NNE 22 35 12 19 1018.7 1018.4 0.0
21/09:30am 31.2 25.1 -4.0 10 15.9 NNE 19 24 10 13 1018.9 1018.6 0.0
21/09:00am 28.6 22.5 -3.6 12 14.3 NNE 19 26 10 14 1018.8 1018.5 0.0
21/08:30am 27.5 21.9 -3.3 13 13.6 NNE 17 24 9 13 1018.7 1018.4 0.0
21/08:00am 25.4 20.6 -2.2 16 12.3 NE 13 19 7 10 1018.5 1018.2 0.0
21/07:30am 24.0 19.2 -2.5 17 11.6 NE 13 15 7 8 1018.3 1018.0 0.0
21/07:00am 23.9 19.1 -2.6 17 11.6 NNE 13 15 7 8 1017.9 1017.6 0.0
21/06:30am 23.5 19.5 -2.2 18 11.2 NNE 9 13 5 7 1017.4 1017.1 0.0
21/06:00am 23.7 19.4 -2.0 18 11.3 NNE 11 13 6 7 1017.0 1016.7 0.0
21/05:30am 23.5 19.1 -2.2 18 11.2 NNE 11 13 6 7 1016.6 1016.3 0.0
21/05:00am 23.9 19.1 -2.6 17 11.6 NNE 13 17 7 9 1016.3 1016.0 0.0
21/04:30am 23.8 18.6 -2.7 17 11.5 NE 15 19 8 10 1016.2 1015.9 0.0
21/04:00am 23.8 18.7 -1.9 18 11.3 NE 15 19 8 10 1016.2 1015.9 0.0
21/03:30am 24.2 19.0 -2.4 17 11.7 NE 15 19 8 10 1016.4 1016.1 0.0
21/03:00am 24.9 19.8 -1.8 17 11.9 NE 15 17 8 9 1016.8 1016.5 0.0
21/02:30am 25.3 20.6 -1.5 17 12.1 NE 13 17 7 9 1017.0 1016.7 0.0
21/02:00am 25.5 19.7 -1.3 17 12.1 ENE 19 26 10 14 1017.2 1016.9 0.0
21/01:30am 24.3 19.9 -2.3 17 11.7 NNE 11 13 6 7 1017.3 1017.0 0.0
21/01:00am 24.8 20.8 -1.9 17 11.9 NNE 9 11 5 6 1017.5 1017.2 0.0
21/12:30am 25.0 21.0 -2.5 16 12.1 NNE 9 11 5 6 1017.7 1017.4 0.0
21/12:00am 25.6 21.6 -2.1 16 12.3 NNE 9 11 5 6 1018.0 1017.7 0.0
 
Date/Time
CDT
Temp
°C
App
Temp
°C
Dew
Point
Rel
Hum
%
Delta-T
°C
Wind Press
QNH
hPa
Press
MSL
hPa
Rain
since 9 am
mm
Dir
 
Spd
km/h
Gust
km/h
Spd
kts
Gust
kts
20/11:30pm 26.8 22.7 -2.9 14 13.2 NNE 9 13 5 7 1018.2 1017.9 0.0
20/11:00pm 28.6 23.8 -2.5 13 14.1 NNE 13 15 7 8 1018.2 1017.9 0.0
20/10:30pm 29.2 24.3 -3.1 12 14.6 NNE 13 15 7 8 1018.1 1017.8 0.0
20/10:00pm 30.5 25.2 -3.3 11 15.4 NNE 15 19 8 10 1018.0 1017.7 0.0
20/09:30pm 31.5 26.3 -2.5 11 15.8 NE 15 19 8 10 1017.7 1017.4 0.0
20/09:00pm 32.4 26.8 -3.1 10 16.4 NE 17 24 9 13 1017.4 1017.1 0.0
20/08:30pm 33.0 27.4 -2.6 10 16.7 NE 17 20 9 11 1017.2 1016.9 0.0
20/08:00pm 33.6 28.3 -3.6 9 17.2 NE 15 20 8 11 1016.8 1016.5 0.0
20/07:30pm 34.9 28.6 -4.2 8 18.1 NE 20 26 11 14 1016.5 1016.2 0.0
20/07:00pm 36.0 29.6 -5.2 7 18.9 NNE 20 32 11 17 1016.1 1015.8 0.0
20/06:30pm 36.3 30.5 -5.0 7 19.0 NNE 17 24 9 13 1015.7 1015.5 0.0
20/06:00pm 36.9 31.1 -4.5 7 19.3 N 17 30 9 16 1015.7 1015.5 0.0
20/05:30pm 37.4 31.3 -4.2 7 19.6 N 19 33 10 18 1015.6 1015.4 0.0
20/05:00pm 37.3 31.5 -4.2 7 19.5 N 17 39 9 21 1015.6 1015.4 0.0
20/04:30pm 37.6 32.8 -6.0 6 20.0 ENE 11 20 6 11 1015.7 1015.5 0.0
20/04:00pm 37.3 31.0 -6.3 6 19.9 N 19 35 10 19 1016.1 1015.8 0.0
20/03:30pm 37.7 30.8 -6.0 6 20.0 N 22 33 12 18 1016.6 1016.3 0.0
20/03:00pm 37.6 30.1 -8.4 5 20.3 NNW 24 32 13 17 1017.0 1016.7 0.0
20/02:30pm 37.6 31.7 -6.0 6 20.0 N 17 22 9 12 1017.6 1017.3 0.0
20/02:00pm 36.8 30.8 -6.6 6 19.6 N 17 41 9 22 1018.0 1017.7 0.0
20/01:30pm 37.7 31.2 -6.0 6 20.0 NNW 20 32 11 17 1018.5 1018.2 0.0
20/01:00pm 36.3 28.2 -7.0 6 19.4 N 28 43 15 23 1018.8 1018.5 0.0
20/12:30pm 36.2 28.8 -7.0 6 19.3 NNE 24 39 13 21 1019.2 1018.9 0.0
20/12:00pm 36.0 28.6 -7.2 6 19.2 NE 24 35 13 19 1019.6 1019.3 0.0
20/11:30am 34.8 27.9 -6.0 7 18.3 NNE 22 33 12 18 1020.1 1019.8 0.0
20/11:00am 34.3 27.0 -6.4 7 18.1 NNE 24 33 13 18 1020.6 1020.3 0.0
20/10:30am 33.3 25.5 -7.1 7 17.6 NE 26 35 14 19 1020.8 1020.5 0.0
20/10:00am 32.0 24.7 -6.3 8 16.7 NE 24 30 13 16 1020.8 1020.5 0.0
20/09:30am 30.3 23.6 -7.6 8 15.9 ENE 20 26 11 14 1020.7 1020.4 0.0
20/09:00am 27.8 21.3 -7.9 9 14.6 NE 19 28 10 15 1020.6 1020.3 0.0
20/08:30am 26.1 21.1 -7.9 10 13.7 NE 11 17 6 9 1020.3 1020.0 0.0
20/08:00am 23.6 19.3 -8.5 11 12.5 ENE 7 11 4 6 1020.1 1019.8 0.0
20/07:30am 21.0 16.7 -8.4 13 11.1 ENE 7 9 4 5 1019.8 1019.5 0.0
20/07:00am 20.2 15.2 -8.1 14 10.7 NE 11 15 6 8 1019.3 1019.0 0.0
20/06:30am 20.3 14.9 -8.0 14 10.7 ENE 13 15 7 8 1019.0 1018.7 0.0
20/06:00am 18.8 13.8 -8.3 15 10.0 ENE 11 13 6 7 1018.7 1018.4 0.0
20/05:30am 15.7 10.9 -10.0 16 8.8 NE 9 11 5 6 1018.6 1018.3 0.0
20/05:00am 17.2 12.5 -8.8 16 9.4 NE 9 9 5 5 1018.5 1018.2 0.0
20/04:51am 17.3 12.6 -8.7 16 9.4 NE 9 13 5 7 1018.6 1018.3 0.0
20/04:30am 14.9 10.1 -10.7 16 8.6 NE 9 9 5 5 1018.5 1018.2 0.0
20/04:15am 14.9 10.0 -11.5 15 8.7 ENE 9 13 5 7 1018.5 1018.2 0.0
20/04:00am 15.9 11.1 -9.9 16 8.9 ENE 9 11 5 6 1018.6 1018.3 0.0
20/03:40am 15.5 10.7 -11.0 15 8.9 ENE 9 11 5 6 1018.6 1018.3 0.0
20/03:30am 16.6 13.6 -9.3 16 9.1 CALM 0 9 0 5 1018.6 1018.3 0.0
20/03:20am 15.5 12.4 -10.2 16 8.8 CALM 0 0 0 0 1018.8 1018.5 0.0
20/03:05am 15.3 11.1 -10.3 16 8.7 SE 6 7 3 4 1019.0 1018.7 0.0
20/03:00am 15.5 11.2 -11.0 15 8.9 ESE 6 7 3 4 1019.0 1018.7 0.0
20/02:51am 16.1 11.7 -10.5 15 9.1 ESE 7 11 4 6 1018.9 1018.6 0.0
20/02:30am 16.9 12.2 -9.0 16 9.2 SE 9 15 5 8 1018.9 1018.6 0.0
20/02:00am 15.4 12.3 -10.3 16 8.8 CALM 0 0 0 0 1019.0 1018.7 0.0
20/01:30am 15.3 12.1 -12.0 14 8.9 CALM 0 0 0 0 1019.1 1018.8 0.0
20/01:00am 15.7 11.3 -12.6 13 9.2 ENE 6 7 3 4 1019.3 1019.0 0.0
20/12:30am 16.5 11.6 -12.0 13 9.5 ENE 9 11 5 6 1019.2 1018.9 0.0
20/12:00am 17.0 12.1 -11.6 13 9.6 ENE 9 11 5 6 1019.3 1019.0 0.0
 
Date/Time
CDT
Temp
°C
App
Temp
°C
Dew
Point
Rel
Hum
%
Delta-T
°C
Wind Press
QNH
hPa
Press
MSL
hPa
Rain
since 9 am
mm
Dir
 
Spd
km/h
Gust
km/h
Spd
kts
Gust
kts
19/11:30pm 18.0 13.5 -11.8 12 10.1 ENE 7 9 4 5 1019.3 1019.0 0.0
19/11:00pm 19.0 14.0 -13.3 10 10.8 NE 9 9 5 5 1019.3 1019.0 0.0
19/10:30pm 20.2 15.7 -11.2 11 11.1 NE 7 9 4 5 1019.4 1019.1 0.0
19/10:00pm 21.1 16.6 -11.7 10 11.7 NE 7 9 4 5 1019.3 1019.0 0.0
19/09:30pm 22.3 17.4 -12.1 9 12.3 ENE 9 9 5 5 1019.0 1018.7 0.0
19/09:00pm 24.4 19.9 -11.9 8 13.3 NE 7 9 4 5 1018.8 1018.5 0.0
19/08:30pm 27.6 22.7 -11.3 7 14.9 ENE 9 9 5 5 1018.6 1018.3 0.0
19/08:00pm 29.4 24.3 -9.9 7 15.8 E 11 13 6 7 1018.3 1018.0 0.0
19/07:30pm 31.2 26.4 -10.6 6 16.8 ENE 9 11 5 6 1018.1 1017.8 0.0
19/07:00pm 32.6 27.5 -9.6 6 17.5 ENE 11 15 6 8 1017.8 1017.5 0.0
19/06:30pm 33.3 27.8 -9.1 6 17.8 NE 13 17 7 9 1017.6 1017.3 0.0
19/06:00pm 33.6 29.5 -8.9 6 18.0 NE 6 11 3 6 1017.2 1016.9 0.0
19/05:30pm 34.4 29.2 -10.6 5 18.7 N 11 20 6 11 1017.4 1017.1 0.0
19/05:00pm 34.4 28.8 -10.6 5 18.7 NE 13 17 7 9 1017.3 1017.0 0.0
19/04:30pm 34.5 28.7 -8.2 6 18.4 N 15 20 8 11 1017.3 1017.0 0.0
19/04:00pm 35.5 28.8 -9.9 5 19.3 NNE 19 30 10 16 1017.4 1017.1 0.0
19/03:30pm 35.2 28.9 -10.1 5 19.1 NNE 17 26 9 14 1017.7 1017.4 0.0
19/03:00pm 34.6 28.1 -8.2 6 18.5 NNE 19 28 10 15 1018.1 1017.8 0.0
19/02:30pm 34.0 27.3 -8.6 6 18.2 N 20 30 11 16 1018.4 1018.1 0.0
19/02:00pm 33.4 26.6 -9.0 6 17.9 N 20 30 11 16 1018.7 1018.4 0.0
19/01:30pm 33.5 26.3 -9.0 6 17.9 N 22 33 12 18 1019.2 1018.9 0.0
19/01:11pm 33.1 24.9 -7.3 7 17.5 N 28 46 15 25 1019.3 1019.0 0.0
19/01:00pm 32.8 26.1 -7.5 7 17.4 N 20 32 11 17 1019.4 1019.1 0.0
19/12:30pm 32.6 24.8 -7.6 7 17.2 N 26 43 14 23 1019.8 1019.5 0.0
19/12:00pm 32.1 23.9 -8.0 7 17.0 N 28 41 15 22 1020.3 1020.0 0.0
19/11:30am 31.8 23.7 -6.5 8 16.6 N 28 41 15 22 1020.6 1020.3 0.0
19/11:00am 31.2 22.7 -6.9 8 16.4 N 30 41 16 22 1020.8 1020.5 0.0
19/10:30am 30.0 21.9 -6.3 9 15.5 N 28 35 15 19 1021.0 1020.7 0.0
19/10:00am 28.4 22.1 -6.1 10 14.7 NNE 19 26 10 14 1021.1 1020.8 0.0
19/09:30am 26.7 20.2 -7.4 10 13.9 NNE 19 26 10 14 1020.9 1020.6 0.0
19/09:00am 24.7 19.1 -6.6 12 12.7 NNE 15 22 8 12 1020.9 1020.6 0.0
19/08:30am 22.2 17.8 -5.6 15 11.2 NE 9 15 5 8 1020.7 1020.4 0.0
19/08:00am 19.7 15.3 -6.0 17 10.1 NE 9 11 5 6 1020.7 1020.4 0.0
19/07:30am 16.8 12.4 -5.6 21 8.6 ENE 9 11 5 6 1020.4 1020.1 0.0
19/07:00am 13.7 9.2 -6.5 24 7.3 NE 9 11 5 6 1020.0 1019.7 0.0
19/06:30am 11.7 7.0 -9.3 22 6.9 ENE 9 11 5 6 1019.8 1019.5 0.0
19/06:00am 14.2 9.4 -6.1 24 7.4 NE 11 11 6 6 1019.3 1019.0 0.0
19/05:30am 15.1 10.6 -7.0 21 8.0 NE 9 11 5 6 1018.9 1018.6 0.0
19/05:00am 16.8 11.7 -5.6 21 8.6 NE 13 13 7 7 1018.7 1018.4 0.0
19/04:30am 16.7 11.5 -5.7 21 8.5 NE 13 13 7 7 1018.8 1018.5 0.0
19/04:00am 17.0 11.9 -5.5 21 8.7 NE 13 15 7 8 1018.9 1018.6 0.0
19/03:30am 15.1 10.0 -5.3 24 7.7 ENE 13 13 7 7 1019.2 1018.9 0.0
19/03:00am 13.1 8.5 -8.1 22 7.3 NE 9 11 5 6 1019.4 1019.1 0.0
19/02:30am 13.6 9.0 -8.3 21 7.6 NE 9 11 5 6 1019.6 1019.3 0.0
19/02:00am 14.3 9.9 -9.7 18 8.2 NNE 7 9 4 5 1019.9 1019.6 0.0
19/01:30am 16.2 11.6 -7.4 19 8.6 NE 9 11 5 6 1020.1 1019.8 0.0
19/01:00am 15.6 10.5 -9.3 17 8.7 NE 11 11 6 6 1020.1 1019.8 0.0
19/12:30am 16.9 12.3 -7.5 18 9.0 NE 9 11 5 6 1020.2 1019.9 0.0
19/12:00am 17.4 12.8 -7.9 17 9.3 NE 9 9 5 5 1020.5 1020.2 0.0
 
Date/Time
CDT
Temp
°C
App
Temp
°C
Dew
Point
Rel
Hum
%
Delta-T
°C
Wind Press
QNH
hPa
Press
MSL
hPa
Rain
since 9 am
mm
Dir
 
Spd
km/h
Gust
km/h
Spd
kts
Gust
kts
18/11:30pm 19.3 14.9 -6.3 17 9.9 NNE 9 11 5 6 1020.4 1020.1 0.0
18/11:00pm 19.9 15.6 -5.1 18 10.0 NE 9 9 5 5 1020.5 1020.2 0.0
18/10:30pm 20.0 15.5 -6.6 16 10.3 NE 9 9 5 5 1020.4 1020.1 0.0
18/10:00pm 20.7 16.6 -6.8 15 10.7 NNE 7 9 4 5 1020.2 1019.9 0.0
18/09:30pm 22.1 17.5 -7.6 13 11.5 NNE 9 11 5 6 1020.0 1019.7 0.0
18/09:00pm 22.5 18.3 -8.3 12 11.8 NNE 7 9 4 5 1019.9 1019.6 0.0

Other Formats:

Comma delimited format used in spreadsheet applications
http://www.bom.gov.au/fwo/IDS60801/IDS60801.95658.axf

JavaScript Object Notation format (JSON) in row-major order
http://www.bom.gov.au/fwo/IDS60801/IDS60801.95658.json